sensor_id;sensor_type;location;lat;lon;timestamp;pressure;altitude;pressure_sealevel;temperature;humidity
72438;BME280;60444;43.534;-5.674;2023-03-31T00:01:27;101405.09;;;18.33;99.99
72438;BME280;60444;43.534;-5.674;2023-03-31T00:03:54;101417.91;;;18.32;100.00
72438;BME280;60444;43.534;-5.674;2023-03-31T00:06:29;101406.66;;;18.24;100.00
72438;BME280;60444;43.534;-5.674;2023-03-31T00:08:55;101411.56;;;18.19;100.00
72438;BME280;60444;43.534;-5.674;2023-03-31T00:11:26;101407.84;;;18.20;100.00
72438;BME280;60444;43.534;-5.674;2023-03-31T00:13:51;101414.63;;;18.15;100.00
72438;BME280;60444;43.534;-5.674;2023-03-31T00:16:17;101427.66;;;18.11;100.00
72438;BME280;60444;43.534;-5.674;2023-03-31T00:18:43;101415.28;;;18.06;100.00
72438;BME280;60444;43.534;-5.674;2023-03-31T00:21:16;101420.97;;;18.03;100.00
72438;BME280;60444;43.534;-5.674;2023-03-31T00:23:56;101409.22;;;17.88;100.00
72438;BME280;60444;43.534;-5.674;2023-03-31T00:26:22;101404.19;;;17.82;100.00
72438;BME280;60444;43.534;-5.674;2023-03-31T00:28:48;101419.41;;;17.86;100.00
72438;BME280;60444;43.534;-5.674;2023-03-31T00:31:14;101417.84;;;17.82;100.00
72438;BME280;60444;43.534;-5.674;2023-03-31T00:33:40;101403.28;;;17.69;100.00
72438;BME280;60444;43.534;-5.674;2023-03-31T00:36:06;101398.34;;;17.62;100.00
72438;BME280;60444;43.534;-5.674;2023-03-31T00:38:32;101430.56;;;17.71;100.00
72438;BME280;60444;43.534;-5.674;2023-03-31T00:41:01;101432.50;;;17.69;100.00
72438;BME280;60444;43.534;-5.674;2023-03-31T00:43:35;101420.00;;;17.65;100.00
72438;BME280;60444;43.534;-5.674;2023-03-31T00:46:17;101424.72;;;17.63;100.00
72438;BME280;60444;43.534;-5.674;2023-03-31T00:48:49;101432.25;;;17.59;100.00
72438;BME280;60444;43.534;-5.674;2023-03-31T00:51:16;101408.25;;;17.50;100.00
72438;BME280;60444;43.534;-5.674;2023-03-31T00:53:45;101412.13;;;17.46;100.00
72438;BME280;60444;43.534;-5.674;2023-03-31T00:56:13;101422.59;;;17.53;100.00
72438;BME280;60444;43.534;-5.674;2023-03-31T00:58:41;101404.38;;;17.40;100.00
72438;BME280;60444;43.534;-5.674;2023-03-31T01:01:12;101417.81;;;17.43;100.00
72438;BME280;60444;43.534;-5.674;2023-03-31T01:03:40;101433.97;;;17.47;100.00
72438;BME280;60444;43.534;-5.674;2023-03-31T01:06:07;101412.88;;;17.35;100.00
72438;BME280;60444;43.534;-5.674;2023-03-31T01:08:36;101439.81;;;17.41;100.00
72438;BME280;60444;43.534;-5.674;2023-03-31T01:11:05;101444.41;;;17.41;99.10
72438;BME280;60444;43.534;-5.674;2023-03-31T01:13:33;101443.63;;;17.39;100.00
72438;BME280;60444;43.534;-5.674;2023-03-31T01:16:00;101435.75;;;17.34;99.20
72438;BME280;60444;43.534;-5.674;2023-03-31T01:18:26;101439.94;;;17.40;100.00
72438;BME280;60444;43.534;-5.674;2023-03-31T01:30:04;101404.00;;;17.32;93.19
72438;BME280;60444;43.534;-5.674;2023-03-31T01:33:19;101386.38;;;17.50;91.00
72438;BME280;60444;43.534;-5.674;2023-03-31T01:36:01;101391.84;;;17.50;84.77
72438;BME280;60444;43.534;-5.674;2023-03-31T01:44:52;101382.72;;;17.76;84.64
72438;BME280;60444;43.534;-5.674;2023-03-31T01:46:58;101389.31;;;17.86;81.47
72438;BME280;60444;43.534;-5.674;2023-03-31T01:52:25;101389.06;;;17.89;86.72
72438;BME280;60444;43.534;-5.674;2023-03-31T01:55:41;101407.94;;;17.94;82.75
72438;BME280;60444;43.534;-5.674;2023-03-31T01:57:53;101404.00;;;17.98;81.53
72438;BME280;60444;43.534;-5.674;2023-03-31T02:00:30;101387.47;;;17.99;78.64
72438;BME280;60444;43.534;-5.674;2023-03-31T02:03:05;101383.19;;;17.95;87.00
72438;BME280;60444;43.534;-5.674;2023-03-31T02:05:39;101397.63;;;17.97;85.72
72438;BME280;60444;43.534;-5.674;2023-03-31T02:08:11;101397.28;;;17.89;78.81
72438;BME280;60444;43.534;-5.674;2023-03-31T02:10:40;101393.59;;;17.90;78.45
72438;BME280;60444;43.534;-5.674;2023-03-31T02:13:08;101413.94;;;17.99;78.46
72438;BME280;60444;43.534;-5.674;2023-03-31T02:15:39;101422.16;;;17.99;78.99
72438;BME280;60444;43.534;-5.674;2023-03-31T02:18:09;101421.28;;;17.98;87.08
72438;BME280;60444;43.534;-5.674;2023-03-31T02:20:38;101432.47;;;17.95;78.26
72438;BME280;60444;43.534;-5.674;2023-03-31T02:23:07;101417.56;;;17.99;83.05
72438;BME280;60444;43.534;-5.674;2023-03-31T02:25:38;101421.19;;;18.00;79.53
72438;BME280;60444;43.534;-5.674;2023-03-31T02:28:08;101423.59;;;17.92;81.56
72438;BME280;60444;43.534;-5.674;2023-03-31T02:33:27;101435.19;;;17.95;81.54
72438;BME280;60444;43.534;-5.674;2023-03-31T02:35:52;101417.56;;;17.87;81.57
72438;BME280;60444;43.534;-5.674;2023-03-31T02:38:18;101442.53;;;17.95;77.05
72438;BME280;60444;43.534;-5.674;2023-03-31T02:40:43;101442.63;;;17.93;79.40
72438;BME280;60444;43.534;-5.674;2023-03-31T02:43:09;101418.22;;;17.90;76.84
72438;BME280;60444;43.534;-5.674;2023-03-31T02:45:46;101423.34;;;17.95;76.25
72438;BME280;60444;43.534;-5.674;2023-03-31T02:48:28;101434.53;;;17.92;78.16
72438;BME280;60444;43.534;-5.674;2023-03-31T02:53:37;101456.13;;;17.96;82.73
72438;BME280;60444;43.534;-5.674;2023-03-31T02:59:11;101466.38;;;17.93;76.24
72438;BME280;60444;43.534;-5.674;2023-03-31T03:07:24;101469.91;;;17.95;71.69
72438;BME280;60444;43.534;-5.674;2023-03-31T03:10:11;101481.72;;;17.95;79.58
72438;BME280;60444;43.534;-5.674;2023-03-31T03:18:07;101464.28;;;17.84;79.06
72438;BME280;60444;43.534;-5.674;2023-03-31T03:20:32;101452.22;;;17.74;72.43
72438;BME280;60444;43.534;-5.674;2023-03-31T03:23:01;101456.84;;;17.86;73.72
72438;BME280;60444;43.534;-5.674;2023-03-31T03:25:27;101469.00;;;17.82;79.51
72438;BME280;60444;43.534;-5.674;2023-03-31T03:27:54;101480.03;;;17.80;77.65
72438;BME280;60444;43.534;-5.674;2023-03-31T03:30:20;101466.56;;;17.77;72.10
72438;BME280;60444;43.534;-5.674;2023-03-31T03:32:46;101476.19;;;17.70;75.28
72438;BME280;60444;43.534;-5.674;2023-03-31T03:35:11;101485.47;;;17.68;79.04
72438;BME280;60444;43.534;-5.674;2023-03-31T03:37:37;101482.50;;;17.58;81.56
72438;BME280;60444;43.534;-5.674;2023-03-31T03:40:03;101498.31;;;17.53;83.79
72438;BME280;60444;43.534;-5.674;2023-03-31T03:42:33;101475.28;;;17.43;85.37
72438;BME280;60444;43.534;-5.674;2023-03-31T03:44:58;101449.03;;;17.26;85.96
72438;BME280;60444;43.534;-5.674;2023-03-31T03:47:24;101464.38;;;17.29;88.78
72438;BME280;60444;43.534;-5.674;2023-03-31T03:49:49;101478.44;;;17.23;91.04
72438;BME280;60444;43.534;-5.674;2023-03-31T03:52:15;101455.25;;;17.02;90.38
72438;BME280;60444;43.534;-5.674;2023-03-31T03:54:41;101444.91;;;16.93;91.10
72438;BME280;60444;43.534;-5.674;2023-03-31T03:57:06;101466.38;;;16.99;94.50
72438;BME280;60444;43.534;-5.674;2023-03-31T03:59:32;101467.94;;;16.89;91.15
72438;BME280;60444;43.534;-5.674;2023-03-31T04:01:57;101460.56;;;16.77;91.01
72438;BME280;60444;43.534;-5.674;2023-03-31T04:04:23;101466.97;;;16.76;86.83
72438;BME280;60444;43.534;-5.674;2023-03-31T04:06:49;101479.19;;;16.70;85.90
72438;BME280;60444;43.534;-5.674;2023-03-31T04:09:14;101492.66;;;16.73;87.07
72438;BME280;60444;43.534;-5.674;2023-03-31T04:11:40;101481.06;;;16.70;87.82
72438;BME280;60444;43.534;-5.674;2023-03-31T04:14:05;101486.69;;;16.67;88.70
72438;BME280;60444;43.534;-5.674;2023-03-31T04:16:31;101495.09;;;16.64;85.57
72438;BME280;60444;43.534;-5.674;2023-03-31T04:18:58;101513.84;;;16.70;85.68
72438;BME280;60444;43.534;-5.674;2023-03-31T04:21:29;101515.94;;;16.65;86.02
72438;BME280;60444;43.534;-5.674;2023-03-31T04:24:01;101497.50;;;16.68;83.39
72438;BME280;60444;43.534;-5.674;2023-03-31T04:26:30;101526.59;;;16.69;75.26
72438;BME280;60444;43.534;-5.674;2023-03-31T04:29:05;101517.34;;;16.72;82.93
72438;BME280;60444;43.534;-5.674;2023-03-31T04:31:32;101494.31;;;16.62;75.01
72438;BME280;60444;43.534;-5.674;2023-03-31T04:33:57;101512.47;;;16.77;67.93
72438;BME280;60444;43.534;-5.674;2023-03-31T04:36:32;101507.59;;;16.82;70.42
72438;BME280;60444;43.534;-5.674;2023-03-31T04:38:57;101511.00;;;16.85;64.29
72438;BME280;60444;43.534;-5.674;2023-03-31T04:41:24;101516.19;;;16.90;69.58
72438;BME280;60444;43.534;-5.674;2023-03-31T04:43:52;101519.88;;;16.89;76.63
72438;BME280;60444;43.534;-5.674;2023-03-31T04:46:17;101518.72;;;16.79;79.48
72438;BME280;60444;43.534;-5.674;2023-03-31T04:48:43;101531.00;;;16.86;64.69
72438;BME280;60444;43.534;-5.674;2023-03-31T04:51:08;101532.75;;;16.87;64.48
72438;BME280;60444;43.534;-5.674;2023-03-31T04:53:35;101549.06;;;17.02;65.76
72438;BME280;60444;43.534;-5.674;2023-03-31T04:56:00;101544.78;;;16.98;62.51
72438;BME280;60444;43.534;-5.674;2023-03-31T04:58:27;101557.19;;;17.04;67.21
72438;BME280;60444;43.534;-5.674;2023-03-31T05:00:52;101538.16;;;17.02;61.93
72438;BME280;60444;43.534;-5.674;2023-03-31T05:03:18;101559.69;;;17.07;60.79
72438;BME280;60444;43.534;-5.674;2023-03-31T05:05:44;101547.31;;;17.01;65.73
72438;BME280;60444;43.534;-5.674;2023-03-31T05:08:09;101543.69;;;17.01;60.88
72438;BME280;60444;43.534;-5.674;2023-03-31T05:10:35;101558.72;;;17.08;65.95
72438;BME280;60444;43.534;-5.674;2023-03-31T05:13:01;101541.84;;;17.01;71.65
72438;BME280;60444;43.534;-5.674;2023-03-31T05:15:26;101540.38;;;16.96;62.08
72438;BME280;60444;43.534;-5.674;2023-03-31T05:17:52;101533.25;;;16.93;71.55
72438;BME280;60444;43.534;-5.674;2023-03-31T05:20:19;101567.59;;;16.97;59.82
72438;BME280;60444;43.534;-5.674;2023-03-31T05:22:45;101549.56;;;16.95;73.01
72438;BME280;60444;43.534;-5.674;2023-03-31T05:25:12;101572.00;;;17.00;63.00
72438;BME280;60444;43.534;-5.674;2023-03-31T05:27:44;101557.06;;;16.91;67.13
72438;BME280;60444;43.534;-5.674;2023-03-31T05:30:12;101590.34;;;16.98;65.93
72438;BME280;60444;43.534;-5.674;2023-03-31T05:32:37;101574.94;;;16.97;65.54
72438;BME280;60444;43.534;-5.674;2023-03-31T05:35:03;101572.59;;;16.91;64.56
72438;BME280;60444;43.534;-5.674;2023-03-31T05:37:29;101592.50;;;16.93;62.00
72438;BME280;60444;43.534;-5.674;2023-03-31T05:39:56;101580.22;;;16.86;58.68
72438;BME280;60444;43.534;-5.674;2023-03-31T05:42:22;101589.19;;;16.88;62.38
72438;BME280;60444;43.534;-5.674;2023-03-31T05:44:47;101571.22;;;16.84;69.87
72438;BME280;60444;43.534;-5.674;2023-03-31T05:47:13;101579.91;;;16.90;59.22
72438;BME280;60444;43.534;-5.674;2023-03-31T05:49:39;101600.13;;;16.88;74.44
72438;BME280;60444;43.534;-5.674;2023-03-31T05:52:05;101592.41;;;16.80;64.16
72438;BME280;60444;43.534;-5.674;2023-03-31T05:54:32;101582.63;;;16.76;60.05
72438;BME280;60444;43.534;-5.674;2023-03-31T05:56:57;101569.53;;;16.67;57.24
72438;BME280;60444;43.534;-5.674;2023-03-31T05:59:23;101568.66;;;16.67;66.93
72438;BME280;60444;43.534;-5.674;2023-03-31T06:01:48;101606.16;;;16.79;73.58
72438;BME280;60444;43.534;-5.674;2023-03-31T06:04:14;101610.16;;;16.73;61.10
72438;BME280;60444;43.534;-5.674;2023-03-31T06:06:40;101585.94;;;16.67;70.54
72438;BME280;60444;43.534;-5.674;2023-03-31T06:09:07;101614.72;;;16.73;64.23
72438;BME280;60444;43.534;-5.674;2023-03-31T06:11:33;101624.66;;;16.74;63.82
72438;BME280;60444;43.534;-5.674;2023-03-31T06:13:58;101601.16;;;16.71;59.97
72438;BME280;60444;43.534;-5.674;2023-03-31T06:16:24;101609.03;;;16.62;59.13
72438;BME280;60444;43.534;-5.674;2023-03-31T06:18:50;101622.69;;;16.62;59.15
72438;BME280;60444;43.534;-5.674;2023-03-31T06:21:18;101634.91;;;16.70;66.96
72438;BME280;60444;43.534;-5.674;2023-03-31T06:23:45;101628.94;;;16.64;60.62
72438;BME280;60444;43.534;-5.674;2023-03-31T06:26:16;101635.00;;;16.69;60.00
72438;BME280;60444;43.534;-5.674;2023-03-31T06:28:42;101613.13;;;16.54;63.87
72438;BME280;60444;43.534;-5.674;2023-03-31T06:31:14;101630.63;;;16.66;60.04
72438;BME280;60444;43.534;-5.674;2023-03-31T06:33:41;101644.44;;;16.63;62.92
72438;BME280;60444;43.534;-5.674;2023-03-31T06:36:08;101629.63;;;16.67;69.64
72438;BME280;60444;43.534;-5.674;2023-03-31T06:38:35;101628.34;;;16.58;70.56
72438;BME280;60444;43.534;-5.674;2023-03-31T06:41:03;101633.97;;;16.55;61.32
72438;BME280;60444;43.534;-5.674;2023-03-31T06:43:28;101653.44;;;16.65;62.18
72438;BME280;60444;43.534;-5.674;2023-03-31T06:45:54;101654.53;;;16.63;66.06
72438;BME280;60444;43.534;-5.674;2023-03-31T06:48:21;101656.25;;;16.64;67.87
72438;BME280;60444;43.534;-5.674;2023-03-31T06:50:47;101656.38;;;16.62;62.49
72438;BME280;60444;43.534;-5.674;2023-03-31T06:53:13;101652.66;;;16.63;62.46
72438;BME280;60444;43.534;-5.674;2023-03-31T06:55:39;101656.53;;;16.59;67.86
72438;BME280;60444;43.534;-5.674;2023-03-31T06:58:05;101668.25;;;16.61;67.45
72438;BME280;60444;43.534;-5.674;2023-03-31T07:00:33;101685.44;;;16.63;64.09
72438;BME280;60444;43.534;-5.674;2023-03-31T07:02:59;101668.91;;;16.50;62.94
72438;BME280;60444;43.534;-5.674;2023-03-31T07:05:26;101683.16;;;16.55;64.14
72438;BME280;60444;43.534;-5.674;2023-03-31T07:07:54;101707.19;;;16.65;68.32
72438;BME280;60444;43.534;-5.674;2023-03-31T07:10:20;101702.34;;;16.70;65.30
72438;BME280;60444;43.534;-5.674;2023-03-31T07:12:46;101676.94;;;16.53;62.83
72438;BME280;60444;43.534;-5.674;2023-03-31T07:15:11;101704.19;;;16.69;71.20
72438;BME280;60444;43.534;-5.674;2023-03-31T07:17:37;101712.59;;;16.66;66.08
72438;BME280;60444;43.534;-5.674;2023-03-31T07:20:07;101707.38;;;16.62;67.99
72438;BME280;60444;43.534;-5.674;2023-03-31T07:22:46;101708.88;;;16.67;65.86
72438;BME280;60444;43.534;-5.674;2023-03-31T07:25:16;101706.59;;;16.59;68.09
72438;BME280;60444;43.534;-5.674;2023-03-31T07:27:42;101711.25;;;16.57;69.41
72438;BME280;60444;43.534;-5.674;2023-03-31T07:30:15;101733.19;;;16.72;72.60
72438;BME280;60444;43.534;-5.674;2023-03-31T07:32:42;101714.78;;;16.59;71.38
72438;BME280;60444;43.534;-5.674;2023-03-31T07:35:09;101736.88;;;16.71;74.03
72438;BME280;60444;43.534;-5.674;2023-03-31T07:37:36;101725.06;;;16.70;69.06
72438;BME280;60444;43.534;-5.674;2023-03-31T07:40:03;101727.72;;;16.72;72.64
72438;BME280;60444;43.534;-5.674;2023-03-31T07:42:30;101707.81;;;16.70;62.64
72438;BME280;60444;43.534;-5.674;2023-03-31T07:44:56;101728.81;;;16.83;67.54
72438;BME280;60444;43.534;-5.674;2023-03-31T07:47:22;101742.94;;;16.76;73.55
72438;BME280;60444;43.534;-5.674;2023-03-31T07:49:48;101720.03;;;16.78;73.06
72438;BME280;60444;43.534;-5.674;2023-03-31T07:52:14;101723.38;;;16.83;73.01
72438;BME280;60444;43.534;-5.674;2023-03-31T07:54:40;101733.84;;;16.91;70.74
72438;BME280;60444;43.534;-5.674;2023-03-31T07:57:06;101719.84;;;16.81;68.69
72438;BME280;60444;43.534;-5.674;2023-03-31T07:59:32;101739.91;;;16.96;67.50
72438;BME280;60444;43.534;-5.674;2023-03-31T08:01:58;101713.13;;;16.87;76.70
72438;BME280;60444;43.534;-5.674;2023-03-31T08:04:24;101725.34;;;16.95;68.97
72438;BME280;60444;43.534;-5.674;2023-03-31T08:06:49;101725.63;;;16.91;66.10
72438;BME280;60444;43.534;-5.674;2023-03-31T08:09:16;101730.53;;;17.00;79.48
72438;BME280;60444;43.534;-5.674;2023-03-31T08:11:42;101710.97;;;16.92;68.50
72438;BME280;60444;43.534;-5.674;2023-03-31T08:14:07;101710.41;;;17.01;67.99
72438;BME280;60444;43.534;-5.674;2023-03-31T08:16:33;101727.63;;;17.03;73.80
72438;BME280;60444;43.534;-5.674;2023-03-31T08:18:58;101741.31;;;17.17;61.55
72438;BME280;60444;43.534;-5.674;2023-03-31T08:21:24;101739.09;;;17.23;60.67
72438;BME280;60444;43.534;-5.674;2023-03-31T08:23:52;101736.28;;;17.25;62.21
72438;BME280;60444;43.534;-5.674;2023-03-31T08:26:18;101737.84;;;17.29;65.00
72438;BME280;60444;43.534;-5.674;2023-03-31T08:28:46;101730.22;;;17.34;66.04
72438;BME280;60444;43.534;-5.674;2023-03-31T08:31:13;101716.13;;;17.26;70.42
72438;BME280;60444;43.534;-5.674;2023-03-31T08:33:40;101755.72;;;17.34;68.17
72438;BME280;60444;43.534;-5.674;2023-03-31T08:36:07;101755.63;;;17.36;62.29
72438;BME280;60444;43.534;-5.674;2023-03-31T08:38:35;101755.84;;;17.33;80.54
72438;BME280;60444;43.534;-5.674;2023-03-31T08:41:11;101755.44;;;17.39;62.60
72438;BME280;60444;43.534;-5.674;2023-03-31T08:43:43;101727.03;;;17.41;67.97
72438;BME280;60444;43.534;-5.674;2023-03-31T08:46:12;101760.09;;;17.52;64.82
72438;BME280;60444;43.534;-5.674;2023-03-31T08:48:45;101744.94;;;17.47;62.37
72438;BME280;60444;43.534;-5.674;2023-03-31T08:51:36;101771.72;;;17.56;65.82
72438;BME280;60444;43.534;-5.674;2023-03-31T08:56:38;101735.56;;;17.65;60.99
72438;BME280;60444;43.534;-5.674;2023-03-31T08:59:33;101737.31;;;17.66;68.00
72438;BME280;60444;43.534;-5.674;2023-03-31T09:10:04;101768.50;;;17.92;57.59
72438;BME280;60444;43.534;-5.674;2023-03-31T09:17:51;101765.97;;;18.03;68.34
72438;BME280;60444;43.534;-5.674;2023-03-31T09:20:35;101779.53;;;18.18;61.02
72438;BME280;60444;43.534;-5.674;2023-03-31T09:23:30;101790.31;;;18.21;59.25
72438;BME280;60444;43.534;-5.674;2023-03-31T09:25:56;101782.44;;;18.29;65.01
72438;BME280;60444;43.534;-5.674;2023-03-31T09:28:30;101791.75;;;18.27;65.92
72438;BME280;60444;43.534;-5.674;2023-03-31T09:30:59;101783.53;;;18.27;58.52
72438;BME280;60444;43.534;-5.674;2023-03-31T09:33:29;101788.81;;;18.30;60.50
72438;BME280;60444;43.534;-5.674;2023-03-31T09:36:02;101783.81;;;18.36;59.25
72438;BME280;60444;43.534;-5.674;2023-03-31T09:38:33;101783.13;;;18.33;60.71
72438;BME280;60444;43.534;-5.674;2023-03-31T09:41:00;101762.69;;;18.24;64.91
72438;BME280;60444;43.534;-5.674;2023-03-31T09:43:30;101794.97;;;18.33;66.34
72438;BME280;60444;43.534;-5.674;2023-03-31T09:46:00;101779.59;;;18.31;69.55
72438;BME280;60444;43.534;-5.674;2023-03-31T09:48:29;101771.41;;;18.17;68.62
72438;BME280;60444;43.534;-5.674;2023-03-31T09:51:05;101803.00;;;18.22;71.01
72438;BME280;60444;43.534;-5.674;2023-03-31T09:56:06;101791.84;;;18.11;79.82
72438;BME280;60444;43.534;-5.674;2023-03-31T09:58:43;101764.59;;;17.96;73.51
72438;BME280;60444;43.534;-5.674;2023-03-31T10:01:13;101782.97;;;17.94;73.76
72438;BME280;60444;43.534;-5.674;2023-03-31T10:03:48;101786.50;;;17.96;74.35
72438;BME280;60444;43.534;-5.674;2023-03-31T10:06:15;101754.03;;;17.90;75.11
72438;BME280;60444;43.534;-5.674;2023-03-31T10:08:48;101768.59;;;17.90;77.59
72438;BME280;60444;43.534;-5.674;2023-03-31T10:11:16;101773.88;;;17.93;77.34
72438;BME280;60444;43.534;-5.674;2023-03-31T10:13:53;101777.59;;;17.92;74.94
72438;BME280;60444;43.534;-5.674;2023-03-31T10:16:42;101784.94;;;17.92;76.34
72438;BME280;60444;43.534;-5.674;2023-03-31T10:21:47;101785.25;;;17.87;76.45
72438;BME280;60444;43.534;-5.674;2023-03-31T10:24:18;101787.78;;;17.90;76.89
72438;BME280;60444;43.534;-5.674;2023-03-31T10:26:47;101792.16;;;17.93;76.31
72438;BME280;60444;43.534;-5.674;2023-03-31T10:29:19;101765.47;;;17.82;76.04
72438;BME280;60444;43.534;-5.674;2023-03-31T10:31:46;101765.66;;;17.79;76.53
72438;BME280;60444;43.534;-5.674;2023-03-31T10:34:14;101790.88;;;17.84;76.11
72438;BME280;60444;43.534;-5.674;2023-03-31T10:36:48;101785.25;;;17.87;76.87
72438;BME280;60444;43.534;-5.674;2023-03-31T10:39:17;101790.59;;;17.89;81.63
72438;BME280;60444;43.534;-5.674;2023-03-31T10:41:49;101788.72;;;17.89;74.01
72438;BME280;60444;43.534;-5.674;2023-03-31T10:44:42;101797.56;;;17.94;62.42
72438;BME280;60444;43.534;-5.674;2023-03-31T10:47:19;101794.81;;;17.94;58.45
72438;BME280;60444;43.534;-5.674;2023-03-31T10:49:48;101800.94;;;17.84;66.20
72438;BME280;60444;43.534;-5.674;2023-03-31T10:52:23;101810.66;;;18.03;56.93
72438;BME280;60444;43.534;-5.674;2023-03-31T10:54:53;101808.94;;;18.29;56.30
72438;BME280;60444;43.534;-5.674;2023-03-31T10:57:32;101833.91;;;18.24;61.16
72438;BME280;60444;43.534;-5.674;2023-03-31T11:05:15;101827.63;;;18.50;61.16
72438;BME280;60444;43.534;-5.674;2023-03-31T11:11:42;101798.09;;;18.55;54.89
72438;BME280;60444;43.534;-5.674;2023-03-31T11:14:16;101815.31;;;18.57;57.39
72438;BME280;60444;43.534;-5.674;2023-03-31T11:16:58;101814.44;;;18.57;51.30
72438;BME280;60444;43.534;-5.674;2023-03-31T11:30:51;101811.25;;;18.77;52.90
72438;BME280;60444;43.534;-5.674;2023-03-31T11:39:12;101824.44;;;19.11;55.47
72438;BME280;60444;43.534;-5.674;2023-03-31T11:42:00;101812.00;;;19.06;63.57
72438;BME280;60444;43.534;-5.674;2023-03-31T11:44:31;101820.16;;;19.20;57.69
72438;BME280;60444;43.534;-5.674;2023-03-31T11:47:05;101825.53;;;19.21;62.24
72438;BME280;60444;43.534;-5.674;2023-03-31T11:49:34;101814.69;;;19.20;60.51
72438;BME280;60444;43.534;-5.674;2023-03-31T11:52:24;101813.78;;;19.19;59.06
72438;BME280;60444;43.534;-5.674;2023-03-31T11:57:41;101804.38;;;19.23;59.90
72438;BME280;60444;43.534;-5.674;2023-03-31T12:00:19;101818.09;;;19.23;58.11
72438;BME280;60444;43.534;-5.674;2023-03-31T12:05:37;101842.00;;;19.21;59.62
72438;BME280;60444;43.534;-5.674;2023-03-31T12:08:14;101823.25;;;19.15;60.50
72438;BME280;60444;43.534;-5.674;2023-03-31T12:10:49;101814.38;;;18.98;60.56
72438;BME280;60444;43.534;-5.674;2023-03-31T12:13:33;101830.72;;;18.99;61.33
72438;BME280;60444;43.534;-5.674;2023-03-31T12:16:13;101845.53;;;18.97;60.54
72438;BME280;60444;43.534;-5.674;2023-03-31T12:19:05;101837.81;;;18.89;60.72
72438;BME280;60444;43.534;-5.674;2023-03-31T12:21:34;101823.50;;;18.72;62.83
72438;BME280;60444;43.534;-5.674;2023-03-31T12:24:01;101816.97;;;18.60;62.21
72438;BME280;60444;43.534;-5.674;2023-03-31T12:29:33;101842.72;;;18.57;66.18
72438;BME280;60444;43.534;-5.674;2023-03-31T12:32:04;101844.75;;;18.54;67.35
72438;BME280;60444;43.534;-5.674;2023-03-31T12:34:35;101833.09;;;18.36;68.96
72438;BME280;60444;43.534;-5.674;2023-03-31T12:43:45;101856.59;;;18.40;71.37
72438;BME280;60444;43.534;-5.674;2023-03-31T12:49:34;101846.22;;;18.31;74.95
72438;BME280;60444;43.534;-5.674;2023-03-31T12:52:07;101857.41;;;18.28;73.55
72438;BME280;60444;43.534;-5.674;2023-03-31T12:57:38;101832.75;;;18.42;70.32
72438;BME280;60444;43.534;-5.674;2023-03-31T13:02:34;101848.59;;;18.51;62.59
72438;BME280;60444;43.534;-5.674;2023-03-31T13:08:04;101842.72;;;18.57;60.65
72438;BME280;60444;43.534;-5.674;2023-03-31T13:10:32;101829.78;;;18.59;64.34
72438;BME280;60444;43.534;-5.674;2023-03-31T13:13:14;101837.91;;;18.61;63.09
72438;BME280;60444;43.534;-5.674;2023-03-31T13:15:53;101843.41;;;18.61;60.93
72438;BME280;60444;43.534;-5.674;2023-03-31T13:18:20;101833.78;;;18.54;66.78
72438;BME280;60444;43.534;-5.674;2023-03-31T13:21:00;101825.28;;;18.58;71.33
72438;BME280;60444;43.534;-5.674;2023-03-31T13:23:31;101833.91;;;18.52;66.60
72438;BME280;60444;43.534;-5.674;2023-03-31T13:25:58;101832.72;;;18.56;69.75
72438;BME280;60444;43.534;-5.674;2023-03-31T13:28:44;101836.47;;;18.55;62.82
72438;BME280;60444;43.534;-5.674;2023-03-31T13:31:12;101847.09;;;18.60;61.54
72438;BME280;60444;43.534;-5.674;2023-03-31T13:41:42;101861.91;;;18.57;66.05
72438;BME280;60444;43.534;-5.674;2023-03-31T13:50:07;101879.31;;;18.56;68.23
72438;BME280;60444;43.534;-5.674;2023-03-31T13:55:53;101893.03;;;18.42;69.97
72438;BME280;60444;43.534;-5.674;2023-03-31T14:01:29;101859.53;;;18.37;75.06
72438;BME280;60444;43.534;-5.674;2023-03-31T14:06:47;101890.88;;;18.47;73.12
72438;BME280;60444;43.534;-5.674;2023-03-31T14:11:47;101880.47;;;18.38;77.55
72438;BME280;60444;43.534;-5.674;2023-03-31T14:14:17;101880.38;;;18.40;74.15
72438;BME280;60444;43.534;-5.674;2023-03-31T14:16:47;101878.81;;;18.36;76.95
72438;BME280;60444;43.534;-5.674;2023-03-31T14:25:20;101879.50;;;18.25;71.59
72438;BME280;60444;43.534;-5.674;2023-03-31T14:31:13;101862.78;;;18.16;72.97
72438;BME280;60444;43.534;-5.674;2023-03-31T14:39:20;101879.38;;;18.13;78.13
72438;BME280;60444;43.534;-5.674;2023-03-31T14:41:54;101851.72;;;18.03;74.17
72438;BME280;60444;43.534;-5.674;2023-03-31T14:44:21;101859.94;;;18.17;75.23
72438;BME280;60444;43.534;-5.674;2023-03-31T14:46:47;101885.38;;;18.19;75.86
72438;BME280;60444;43.534;-5.674;2023-03-31T14:49:35;101867.16;;;18.18;78.93
72438;BME280;60444;43.534;-5.674;2023-03-31T14:52:12;101872.47;;;18.21;76.11
72438;BME280;60444;43.534;-5.674;2023-03-31T14:54:38;101889.06;;;18.18;74.51
72438;BME280;60444;43.534;-5.674;2023-03-31T14:57:05;101885.66;;;18.15;77.16
72438;BME280;60444;43.534;-5.674;2023-03-31T14:59:32;101867.84;;;18.22;80.21
72438;BME280;60444;43.534;-5.674;2023-03-31T15:02:01;101873.06;;;18.26;80.78
72438;BME280;60444;43.534;-5.674;2023-03-31T15:04:30;101863.66;;;18.30;80.01
72438;BME280;60444;43.534;-5.674;2023-03-31T15:06:59;101877.84;;;18.37;79.01
72438;BME280;60444;43.534;-5.674;2023-03-31T15:09:28;101853.97;;;18.25;77.28
72438;BME280;60444;43.534;-5.674;2023-03-31T15:11:59;101873.63;;;18.17;75.53
72438;BME280;60444;43.534;-5.674;2023-03-31T15:14:53;101871.00;;;18.30;77.50
72438;BME280;60444;43.534;-5.674;2023-03-31T15:17:27;101885.06;;;18.38;81.17
72438;BME280;60444;43.534;-5.674;2023-03-31T15:19:55;101876.94;;;18.36;79.72
72438;BME280;60444;43.534;-5.674;2023-03-31T15:22:23;101894.16;;;18.38;76.94
72438;BME280;60444;43.534;-5.674;2023-03-31T15:24:51;101888.22;;;18.32;77.49